sensor_id;sensor_type;location;lat;lon;timestamp;temperature;humidity
13205;DHT22;6667;52.634;9.226;2022-09-13T04:32:43;15.90;99.90
13205;DHT22;6667;52.634;9.226;2022-09-13T04:35:09;15.90;99.90
13205;DHT22;6667;52.634;9.226;2022-09-13T04:37:37;15.90;99.90
13205;DHT22;6667;52.634;9.226;2022-09-13T04:40:05;15.90;99.90
13205;DHT22;6667;52.634;9.226;2022-09-13T04:42:32;15.90;99.90
13205;DHT22;6667;52.634;9.226;2022-09-13T04:44:58;15.90;99.90
13205;DHT22;6667;52.634;9.226;2022-09-13T04:47:25;15.90;99.90
13205;DHT22;6667;52.634;9.226;2022-09-13T04:49:53;15.90;99.90
13205;DHT22;6667;52.634;9.226;2022-09-13T04:52:20;16.00;99.90
13205;DHT22;6667;52.634;9.226;2022-09-13T04:54:46;16.00;99.90
13205;DHT22;6667;52.634;9.226;2022-09-13T04:57:13;15.90;99.90
13205;DHT22;6667;52.634;9.226;2022-09-13T04:59:40;15.90;99.90
13205;DHT22;6667;52.634;9.226;2022-09-13T05:02:08;15.90;99.90
13205;DHT22;6667;52.634;9.226;2022-09-13T05:04:34;16.00;99.90
13205;DHT22;6667;52.634;9.226;2022-09-13T05:07:02;15.90;99.90
13205;DHT22;6667;52.634;9.226;2022-09-13T05:09:29;15.90;99.90
13205;DHT22;6667;52.634;9.226;2022-09-13T05:11:56;15.90;99.90
13205;DHT22;6667;52.634;9.226;2022-09-13T05:14:22;15.90;99.90
13205;DHT22;6667;52.634;9.226;2022-09-13T05:16:49;15.90;99.90
13205;DHT22;6667;52.634;9.226;2022-09-13T05:19:15;15.90;99.90
13205;DHT22;6667;52.634;9.226;2022-09-13T05:21:42;15.90;99.90
13205;DHT22;6667;52.634;9.226;2022-09-13T05:24:10;16.00;99.90
13205;DHT22;6667;52.634;9.226;2022-09-13T05:26:37;15.90;99.90
13205;DHT22;6667;52.634;9.226;2022-09-13T05:29:04;15.90;99.90
13205;DHT22;6667;52.634;9.226;2022-09-13T05:31:33;16.00;99.90
13205;DHT22;6667;52.634;9.226;2022-09-13T05:34:01;16.00;99.90
13205;DHT22;6667;52.634;9.226;2022-09-13T05:36:28;16.00;99.90
13205;DHT22;6667;52.634;9.226;2022-09-13T05:38:55;16.00;99.90
13205;DHT22;6667;52.634;9.226;2022-09-13T05:41:23;16.00;99.90
13205;DHT22;6667;52.634;9.226;2022-09-13T05:43:50;16.10;99.90
13205;DHT22;6667;52.634;9.226;2022-09-13T05:46:18;16.10;99.90
13205;DHT22;6667;52.634;9.226;2022-09-13T05:48:46;16.10;99.90
13205;DHT22;6667;52.634;9.226;2022-09-13T05:51:14;16.10;99.90
13205;DHT22;6667;52.634;9.226;2022-09-13T05:53:44;16.20;99.90
13205;DHT22;6667;52.634;9.226;2022-09-13T05:56:13;16.20;99.90
13205;DHT22;6667;52.634;9.226;2022-09-13T05:58:42;16.20;99.90
13205;DHT22;6667;52.634;9.226;2022-09-13T06:01:11;16.20;99.90
13205;DHT22;6667;52.634;9.226;2022-09-13T06:03:38;16.20;99.90
13205;DHT22;6667;52.634;9.226;2022-09-13T06:06:05;16.30;99.90
13205;DHT22;6667;52.634;9.226;2022-09-13T06:08:33;16.30;99.90
13205;DHT22;6667;52.634;9.226;2022-09-13T06:11:01;16.30;99.90
13205;DHT22;6667;52.634;9.226;2022-09-13T06:13:29;16.30;99.90
13205;DHT22;6667;52.634;9.226;2022-09-13T06:15:58;16.40;99.90
13205;DHT22;6667;52.634;9.226;2022-09-13T06:18:25;16.50;99.90
13205;DHT22;6667;52.634;9.226;2022-09-13T06:20:56;16.50;99.90
13205;DHT22;6667;52.634;9.226;2022-09-13T06:23:23;16.50;1.00
13205;DHT22;6667;52.634;9.226;2022-09-13T06:25:58;16.50;99.90
13205;DHT22;6667;52.634;9.226;2022-09-13T06:28:25;16.60;67.70
13205;DHT22;6667;52.634;9.226;2022-09-13T06:30:52;16.60;99.90
13205;DHT22;6667;52.634;9.226;2022-09-13T06:33:25;16.60;99.90
13205;DHT22;6667;52.634;9.226;2022-09-13T06:35:52;16.70;1.00
13205;DHT22;6667;52.634;9.226;2022-09-13T06:38:19;16.70;99.90
13205;DHT22;6667;52.634;9.226;2022-09-13T06:40:46;16.70;99.90
13205;DHT22;6667;52.634;9.226;2022-09-13T06:43:12;16.70;99.90
13205;DHT22;6667;52.634;9.226;2022-09-13T06:45:40;16.70;99.90
13205;DHT22;6667;52.634;9.226;2022-09-13T06:48:06;16.70;99.90
13205;DHT22;6667;52.634;9.226;2022-09-13T06:50:34;16.70;99.90
13205;DHT22;6667;52.634;9.226;2022-09-13T06:53:01;16.70;99.90
13205;DHT22;6667;52.634;9.226;2022-09-13T06:55:28;16.70;99.90
13205;DHT22;6667;52.634;9.226;2022-09-13T06:57:54;16.70;99.90
13205;DHT22;6667;52.634;9.226;2022-09-13T07:00:21;16.70;99.90
13205;DHT22;6667;52.634;9.226;2022-09-13T07:02:50;16.70;99.90
13205;DHT22;6667;52.634;9.226;2022-09-13T07:05:16;16.70;99.90
13205;DHT22;6667;52.634;9.226;2022-09-13T07:07:45;16.70;99.90
13205;DHT22;6667;52.634;9.226;2022-09-13T07:10:11;16.70;99.90
13205;DHT22;6667;52.634;9.226;2022-09-13T07:12:39;16.70;99.90
13205;DHT22;6667;52.634;9.226;2022-09-13T07:15:07;16.80;99.90
13205;DHT22;6667;52.634;9.226;2022-09-13T07:17:33;16.90;99.90
13205;DHT22;6667;52.634;9.226;2022-09-13T07:20:00;16.90;99.90
13205;DHT22;6667;52.634;9.226;2022-09-13T07:22:27;16.90;99.90
13205;DHT22;6667;52.634;9.226;2022-09-13T07:24:55;16.90;99.90
13205;DHT22;6667;52.634;9.226;2022-09-13T07:27:22;16.90;99.90
13205;DHT22;6667;52.634;9.226;2022-09-13T07:29:48;16.90;99.90
13205;DHT22;6667;52.634;9.226;2022-09-13T07:32:15;16.90;99.90
13205;DHT22;6667;52.634;9.226;2022-09-13T07:34:41;16.90;99.90
13205;DHT22;6667;52.634;9.226;2022-09-13T07:37:08;16.90;99.90
13205;DHT22;6667;52.634;9.226;2022-09-13T07:39:34;17.00;99.90
13205;DHT22;6667;52.634;9.226;2022-09-13T07:42:03;17.00;99.90
13205;DHT22;6667;52.634;9.226;2022-09-13T07:44:29;17.00;99.90
13205;DHT22;6667;52.634;9.226;2022-09-13T07:46:56;17.00;99.90
13205;DHT22;6667;52.634;9.226;2022-09-13T07:49:23;17.10;99.90
13205;DHT22;6667;52.634;9.226;2022-09-13T07:51:49;17.10;99.90
13205;DHT22;6667;52.634;9.226;2022-09-13T07:54:17;17.10;99.90
13205;DHT22;6667;52.634;9.226;2022-09-13T07:56:45;17.10;99.90
13205;DHT22;6667;52.634;9.226;2022-09-13T07:59:16;17.20;99.90
13205;DHT22;6667;52.634;9.226;2022-09-13T08:01:44;17.20;99.90
13205;DHT22;6667;52.634;9.226;2022-09-13T08:04:12;17.20;99.90
13205;DHT22;6667;52.634;9.226;2022-09-13T08:06:41;17.30;99.90
13205;DHT22;6667;52.634;9.226;2022-09-13T08:09:09;17.30;99.90
13205;DHT22;6667;52.634;9.226;2022-09-13T08:11:37;17.40;99.90
13205;DHT22;6667;52.634;9.226;2022-09-13T08:14:05;17.40;99.90
13205;DHT22;6667;52.634;9.226;2022-09-13T08:16:34;17.50;99.90
13205;DHT22;6667;52.634;9.226;2022-09-13T08:19:02;17.50;99.90
13205;DHT22;6667;52.634;9.226;2022-09-13T08:21:31;17.60;99.90
13205;DHT22;6667;52.634;9.226;2022-09-13T08:23:59;17.60;99.90
13205;DHT22;6667;52.634;9.226;2022-09-13T08:26:26;17.70;99.90
13205;DHT22;6667;52.634;9.226;2022-09-13T08:28:55;17.90;99.90
13205;DHT22;6667;52.634;9.226;2022-09-13T08:31:23;17.90;99.90
13205;DHT22;6667;52.634;9.226;2022-09-13T08:33:51;18.00;99.90
13205;DHT22;6667;52.634;9.226;2022-09-13T08:36:18;18.10;99.90
13205;DHT22;6667;52.634;9.226;2022-09-13T08:38:46;18.10;99.90
13205;DHT22;6667;52.634;9.226;2022-09-13T08:44:24;18.10;99.90
13205;DHT22;6667;52.634;9.226;2022-09-13T08:46:55;18.20;99.90
13205;DHT22;6667;52.634;9.226;2022-09-13T08:49:27;18.10;99.90
13205;DHT22;6667;52.634;9.226;2022-09-13T08:51:57;18.20;99.90
13205;DHT22;6667;52.634;9.226;2022-09-13T08:54:24;18.20;99.90
13205;DHT22;6667;52.634;9.226;2022-09-13T08:56:56;18.30;99.90
13205;DHT22;6667;52.634;9.226;2022-09-13T08:59:32;18.40;99.90
13205;DHT22;6667;52.634;9.226;2022-09-13T09:02:11;18.40;99.90
13205;DHT22;6667;52.634;9.226;2022-09-13T09:04:45;18.50;99.90
13205;DHT22;6667;52.634;9.226;2022-09-13T09:07:18;18.50;99.90
13205;DHT22;6667;52.634;9.226;2022-09-13T09:09:49;18.50;99.90
13205;DHT22;6667;52.634;9.226;2022-09-13T09:12:23;18.60;99.90
13205;DHT22;6667;52.634;9.226;2022-09-13T09:15:00;18.60;99.90
13205;DHT22;6667;52.634;9.226;2022-09-13T09:17:31;18.70;99.90
13205;DHT22;6667;52.634;9.226;2022-09-13T09:20:07;18.70;99.90
13205;DHT22;6667;52.634;9.226;2022-09-13T09:22:34;18.70;99.90
13205;DHT22;6667;52.634;9.226;2022-09-13T09:25:02;18.80;99.90
13205;DHT22;6667;52.634;9.226;2022-09-13T09:27:30;18.80;99.90
13205;DHT22;6667;52.634;9.226;2022-09-13T09:29:57;18.90;99.90
13205;DHT22;6667;52.634;9.226;2022-09-13T09:32:35;19.00;99.90
13205;DHT22;6667;52.634;9.226;2022-09-13T09:35:14;19.10;99.90
13205;DHT22;6667;52.634;9.226;2022-09-13T09:37:46;19.20;99.90
13205;DHT22;6667;52.634;9.226;2022-09-13T09:40:16;19.30;99.90
13205;DHT22;6667;52.634;9.226;2022-09-13T09:42:44;19.30;99.90
13205;DHT22;6667;52.634;9.226;2022-09-13T09:45:23;19.20;99.90
13205;DHT22;6667;52.634;9.226;2022-09-13T09:47:51;19.30;99.90
13205;DHT22;6667;52.634;9.226;2022-09-13T09:50:22;19.30;99.90
13205;DHT22;6667;52.634;9.226;2022-09-13T09:52:52;19.30;99.90
13205;DHT22;6667;52.634;9.226;2022-09-13T09:55:26;19.40;99.90
13205;DHT22;6667;52.634;9.226;2022-09-13T09:57:55;19.50;99.90
13205;DHT22;6667;52.634;9.226;2022-09-13T10:00:24;19.50;99.90
13205;DHT22;6667;52.634;9.226;2022-09-13T10:02:54;19.50;99.90
13205;DHT22;6667;52.634;9.226;2022-09-13T10:05:23;19.50;99.90
13205;DHT22;6667;52.634;9.226;2022-09-13T10:07:54;19.50;99.90
13205;DHT22;6667;52.634;9.226;2022-09-13T10:10:25;19.40;99.90
13205;DHT22;6667;52.634;9.226;2022-09-13T10:12:54;19.50;99.90
13205;DHT22;6667;52.634;9.226;2022-09-13T10:15:23;19.60;99.90
13205;DHT22;6667;52.634;9.226;2022-09-13T10:18:13;19.50;99.90
13205;DHT22;6667;52.634;9.226;2022-09-13T10:20:53;19.50;99.90
13205;DHT22;6667;52.634;9.226;2022-09-13T10:23:25;19.50;99.90
13205;DHT22;6667;52.634;9.226;2022-09-13T10:26:00;19.50;99.90
13205;DHT22;6667;52.634;9.226;2022-09-13T10:28:29;19.60;99.90
13205;DHT22;6667;52.634;9.226;2022-09-13T10:31:00;19.60;99.90
13205;DHT22;6667;52.634;9.226;2022-09-13T10:33:29;19.60;99.90
13205;DHT22;6667;52.634;9.226;2022-09-13T10:36:00;19.60;99.90
13205;DHT22;6667;52.634;9.226;2022-09-13T10:38:30;19.60;99.90
13205;DHT22;6667;52.634;9.226;2022-09-13T10:40:58;19.40;99.90
13205;DHT22;6667;52.634;9.226;2022-09-13T10:43:28;19.40;99.90
13205;DHT22;6667;52.634;9.226;2022-09-13T10:45:56;19.40;99.90
13205;DHT22;6667;52.634;9.226;2022-09-13T10:48:23;19.40;99.90
13205;DHT22;6667;52.634;9.226;2022-09-13T10:51:03;19.30;99.90
13205;DHT22;6667;52.634;9.226;2022-09-13T10:53:36;19.20;99.90
13205;DHT22;6667;52.634;9.226;2022-09-13T10:56:04;19.40;99.90
13205;DHT22;6667;52.634;9.226;2022-09-13T10:58:31;19.30;99.90
13205;DHT22;6667;52.634;9.226;2022-09-13T11:01:12;19.00;99.90
13205;DHT22;6667;52.634;9.226;2022-09-13T11:06:47;18.80;99.90
13205;DHT22;6667;52.634;9.226;2022-09-13T11:09:20;19.00;99.90
13205;DHT22;6667;52.634;9.226;2022-09-13T11:11:56;19.20;99.90
13205;DHT22;6667;52.634;9.226;2022-09-13T11:14:38;19.40;99.90
13205;DHT22;6667;52.634;9.226;2022-09-13T11:17:15;19.50;99.90
13205;DHT22;6667;52.634;9.226;2022-09-13T11:23:03;19.20;99.90
13205;DHT22;6667;52.634;9.226;2022-09-13T11:25:52;19.30;99.90
13205;DHT22;6667;52.634;9.226;2022-09-13T11:28:27;19.30;99.90
13205;DHT22;6667;52.634;9.226;2022-09-13T11:31:15;19.70;99.90
13205;DHT22;6667;52.634;9.226;2022-09-13T11:33:52;19.70;99.90
13205;DHT22;6667;52.634;9.226;2022-09-13T11:36:45;19.70;99.90
13205;DHT22;6667;52.634;9.226;2022-09-13T11:39:26;19.80;99.90
13205;DHT22;6667;52.634;9.226;2022-09-13T11:42:04;20.00;99.90
13205;DHT22;6667;52.634;9.226;2022-09-13T11:44:47;20.10;99.90
13205;DHT22;6667;52.634;9.226;2022-09-13T11:47:20;20.40;99.90
13205;DHT22;6667;52.634;9.226;2022-09-13T11:52:46;20.50;99.90
13205;DHT22;6667;52.634;9.226;2022-09-13T11:55:19;20.50;99.90
13205;DHT22;6667;52.634;9.226;2022-09-13T11:57:52;20.80;99.90
13205;DHT22;6667;52.634;9.226;2022-09-13T12:00:22;21.00;99.90
13205;DHT22;6667;52.634;9.226;2022-09-13T12:02:57;21.20;99.90
13205;DHT22;6667;52.634;9.226;2022-09-13T12:05:26;21.40;99.90
13205;DHT22;6667;52.634;9.226;2022-09-13T12:07:59;21.80;99.90
13205;DHT22;6667;52.634;9.226;2022-09-13T12:10:31;21.90;99.90
13205;DHT22;6667;52.634;9.226;2022-09-13T12:13:01;22.30;99.90
13205;DHT22;6667;52.634;9.226;2022-09-13T12:15:34;22.40;99.90
13205;DHT22;6667;52.634;9.226;2022-09-13T12:18:04;22.40;99.90
13205;DHT22;6667;52.634;9.226;2022-09-13T12:20:35;22.60;99.90
13205;DHT22;6667;52.634;9.226;2022-09-13T12:23:06;22.70;99.90
13205;DHT22;6667;52.634;9.226;2022-09-13T12:25:43;23.00;99.90
13205;DHT22;6667;52.634;9.226;2022-09-13T12:28:16;23.00;99.90
13205;DHT22;6667;52.634;9.226;2022-09-13T12:30:47;23.10;99.90
13205;DHT22;6667;52.634;9.226;2022-09-13T12:33:16;23.30;99.90
13205;DHT22;6667;52.634;9.226;2022-09-13T12:35:52;23.50;99.90
13205;DHT22;6667;52.634;9.226;2022-09-13T12:41:29;24.00;99.90
13205;DHT22;6667;52.634;9.226;2022-09-13T12:44:26;24.30;99.90
13205;DHT22;6667;52.634;9.226;2022-09-13T12:50:07;24.40;99.90
13205;DHT22;6667;52.634;9.226;2022-09-13T12:52:39;24.60;99.90
13205;DHT22;6667;52.634;9.226;2022-09-13T12:55:21;24.80;99.90
13205;DHT22;6667;52.634;9.226;2022-09-13T12:58:00;25.00;99.90
13205;DHT22;6667;52.634;9.226;2022-09-13T13:00:32;25.20;99.90
13205;DHT22;6667;52.634;9.226;2022-09-13T13:03:03;24.90;99.90
13205;DHT22;6667;52.634;9.226;2022-09-13T13:05:38;24.90;99.90
13205;DHT22;6667;52.634;9.226;2022-09-13T13:08:22;24.90;99.90
13205;DHT22;6667;52.634;9.226;2022-09-13T13:11:00;24.60;99.90
13205;DHT22;6667;52.634;9.226;2022-09-13T13:13:33;24.50;99.90
13205;DHT22;6667;52.634;9.226;2022-09-13T13:16:25;24.80;99.90
13205;DHT22;6667;52.634;9.226;2022-09-13T13:18:53;25.00;99.90
13205;DHT22;6667;52.634;9.226;2022-09-13T13:21:30;25.10;99.90
13205;DHT22;6667;52.634;9.226;2022-09-13T13:27:36;25.00;99.90
13205;DHT22;6667;52.634;9.226;2022-09-13T13:30:49;25.00;99.90
13205;DHT22;6667;52.634;9.226;2022-09-13T13:33:19;24.50;99.90
13205;DHT22;6667;52.634;9.226;2022-09-13T13:35:47;23.80;99.90
13205;DHT22;6667;52.634;9.226;2022-09-13T13:38:38;23.80;99.90
13205;DHT22;6667;52.634;9.226;2022-09-13T13:43:49;24.00;99.90
13205;DHT22;6667;52.634;9.226;2022-09-13T13:46:30;24.10;99.90
13205;DHT22;6667;52.634;9.226;2022-09-13T13:52:33;24.20;99.90
13205;DHT22;6667;52.634;9.226;2022-09-13T13:55:02;24.30;99.90
13205;DHT22;6667;52.634;9.226;2022-09-13T13:57:56;24.10;99.90
13205;DHT22;6667;52.634;9.226;2022-09-13T14:00:27;24.20;99.90
13205;DHT22;6667;52.634;9.226;2022-09-13T14:03:07;24.00;99.90
13205;DHT22;6667;52.634;9.226;2022-09-13T14:05:40;24.00;99.90
13205;DHT22;6667;52.634;9.226;2022-09-13T14:08:28;24.00;99.90
13205;DHT22;6667;52.634;9.226;2022-09-13T14:11:02;24.10;99.90
13205;DHT22;6667;52.634;9.226;2022-09-13T14:13:43;24.00;99.90
13205;DHT22;6667;52.634;9.226;2022-09-13T14:16:21;24.00;99.90
13205;DHT22;6667;52.634;9.226;2022-09-13T14:19:01;23.90;99.90
13205;DHT22;6667;52.634;9.226;2022-09-13T14:21:32;23.30;99.90
13205;DHT22;6667;52.634;9.226;2022-09-13T14:24:16;23.30;99.90
13205;DHT22;6667;52.634;9.226;2022-09-13T14:26:44;23.60;99.90
13205;DHT22;6667;52.634;9.226;2022-09-13T14:29:15;23.40;99.90
13205;DHT22;6667;52.634;9.226;2022-09-13T14:31:45;23.30;99.90
13205;DHT22;6667;52.634;9.226;2022-09-13T14:34:21;23.40;99.90
13205;DHT22;6667;52.634;9.226;2022-09-13T14:36:51;23.50;99.90
13205;DHT22;6667;52.634;9.226;2022-09-13T14:39:19;23.60;99.90
13205;DHT22;6667;52.634;9.226;2022-09-13T14:41:46;23.60;99.90
13205;DHT22;6667;52.634;9.226;2022-09-13T14:44:17;23.70;99.90
13205;DHT22;6667;52.634;9.226;2022-09-13T14:46:47;23.60;99.90
13205;DHT22;6667;52.634;9.226;2022-09-13T14:49:22;23.30;99.90
13205;DHT22;6667;52.634;9.226;2022-09-13T14:51:53;23.10;99.90
13205;DHT22;6667;52.634;9.226;2022-09-13T14:54:29;23.00;99.90
13205;DHT22;6667;52.634;9.226;2022-09-13T14:56:58;23.00;99.90
13205;DHT22;6667;52.634;9.226;2022-09-13T14:59:28;23.00;99.90
13205;DHT22;6667;52.634;9.226;2022-09-13T15:01:57;23.10;99.90
13205;DHT22;6667;52.634;9.226;2022-09-13T15:04:25;22.90;99.90
13205;DHT22;6667;52.634;9.226;2022-09-13T15:07:06;22.80;99.90
13205;DHT22;6667;52.634;9.226;2022-09-13T15:09:33;22.90;99.90
13205;DHT22;6667;52.634;9.226;2022-09-13T15:12:03;23.00;99.90
13205;DHT22;6667;52.634;9.226;2022-09-13T15:14:31;23.10;99.90
13205;DHT22;6667;52.634;9.226;2022-09-13T15:17:06;23.10;99.90
13205;DHT22;6667;52.634;9.226;2022-09-13T15:19:40;23.00;99.90
13205;DHT22;6667;52.634;9.226;2022-09-13T15:22:20;23.00;99.90
13205;DHT22;6667;52.634;9.226;2022-09-13T15:24:49;22.70;99.90
13205;DHT22;6667;52.634;9.226;2022-09-13T15:27:23;22.60;99.90
13205;DHT22;6667;52.634;9.226;2022-09-13T15:29:52;22.60;99.90
13205;DHT22;6667;52.634;9.226;2022-09-13T15:32:22;22.60;99.90
13205;DHT22;6667;52.634;9.226;2022-09-13T15:34:50;22.40;99.90
13205;DHT22;6667;52.634;9.226;2022-09-13T15:37:28;22.40;99.90
13205;DHT22;6667;52.634;9.226;2022-09-13T15:40:10;22.30;99.90
13205;DHT22;6667;52.634;9.226;2022-09-13T15:42:38;22.20;99.90
13205;DHT22;6667;52.634;9.226;2022-09-13T15:45:05;22.00;99.90
13205;DHT22;6667;52.634;9.226;2022-09-13T15:47:32;22.00;99.90
13205;DHT22;6667;52.634;9.226;2022-09-13T15:50:00;21.90;99.90
13205;DHT22;6667;52.634;9.226;2022-09-13T15:52:27;21.90;99.90
13205;DHT22;6667;52.634;9.226;2022-09-13T15:54:53;21.90;99.90
13205;DHT22;6667;52.634;9.226;2022-09-13T15:57:21;21.90;99.90
13205;DHT22;6667;52.634;9.226;2022-09-13T15:59:48;21.90;99.90
13205;DHT22;6667;52.634;9.226;2022-09-13T16:02:19;21.80;99.90
13205;DHT22;6667;52.634;9.226;2022-09-13T16:04:46;21.90;99.90
13205;DHT22;6667;52.634;9.226;2022-09-13T16:07:14;21.80;99.90
13205;DHT22;6667;52.634;9.226;2022-09-13T16:09:41;21.80;99.90
13205;DHT22;6667;52.634;9.226;2022-09-13T16:12:08;21.80;99.90
13205;DHT22;6667;52.634;9.226;2022-09-13T16:14:35;21.90;99.90
13205;DHT22;6667;52.634;9.226;2022-09-13T16:17:05;21.80;99.90
13205;DHT22;6667;52.634;9.226;2022-09-13T16:19:32;21.80;99.90
13205;DHT22;6667;52.634;9.226;2022-09-13T16:21:59;21.70;99.90
13205;DHT22;6667;52.634;9.226;2022-09-13T16:24:27;21.60;99.90
13205;DHT22;6667;52.634;9.226;2022-09-13T16:26:54;21.50;99.90
13205;DHT22;6667;52.634;9.226;2022-09-13T16:29:20;21.40;99.90
13205;DHT22;6667;52.634;9.226;2022-09-13T16:31:47;21.40;99.90
13205;DHT22;6667;52.634;9.226;2022-09-13T16:34:14;21.40;99.90
13205;DHT22;6667;52.634;9.226;2022-09-13T16:36:41;21.40;99.90
13205;DHT22;6667;52.634;9.226;2022-09-13T16:39:07;21.30;99.90
13205;DHT22;6667;52.634;9.226;2022-09-13T16:41:37;21.20;99.90
13205;DHT22;6667;52.634;9.226;2022-09-13T16:44:04;21.10;99.90
13205;DHT22;6667;52.634;9.226;2022-09-13T16:46:32;21.00;99.90
13205;DHT22;6667;52.634;9.226;2022-09-13T16:48:59;20.90;99.90
13205;DHT22;6667;52.634;9.226;2022-09-13T16:51:25;20.90;99.90
13205;DHT22;6667;52.634;9.226;2022-09-13T16:53:53;20.80;99.90
13205;DHT22;6667;52.634;9.226;2022-09-13T16:56:21;20.70;99.90
13205;DHT22;6667;52.634;9.226;2022-09-13T16:58:51;20.70;99.90
13205;DHT22;6667;52.634;9.226;2022-09-13T17:01:20;20.50;99.90
13205;DHT22;6667;52.634;9.226;2022-09-13T17:03:47;20.50;99.90
13205;DHT22;6667;52.634;9.226;2022-09-13T17:06:15;20.40;99.90
13205;DHT22;6667;52.634;9.226;2022-09-13T17:08:46;20.30;99.90
13205;DHT22;6667;52.634;9.226;2022-09-13T17:11:15;20.30;99.90
13205;DHT22;6667;52.634;9.226;2022-09-13T17:13:43;20.20;99.90
13205;DHT22;6667;52.634;9.226;2022-09-13T17:16:24;20.10;99.90
13205;DHT22;6667;52.634;9.226;2022-09-13T17:18:51;20.00;99.90
13205;DHT22;6667;52.634;9.226;2022-09-13T17:21:19;19.90;99.90
13205;DHT22;6667;52.634;9.226;2022-09-13T17:23:46;19.90;99.90
13205;DHT22;6667;52.634;9.226;2022-09-13T17:26:12;19.90;99.90
13205;DHT22;6667;52.634;9.226;2022-09-13T17:28:39;19.80;99.90
13205;DHT22;6667;52.634;9.226;2022-09-13T17:31:06;19.80;99.90
13205;DHT22;6667;52.634;9.226;2022-09-13T17:33:34;19.70;99.90
13205;DHT22;6667;52.634;9.226;2022-09-13T17:36:02;19.60;99.90
13205;DHT22;6667;52.634;9.226;2022-09-13T17:38:29;19.50;99.90
13205;DHT22;6667;52.634;9.226;2022-09-13T17:41:00;19.50;99.90
13205;DHT22;6667;52.634;9.226;2022-09-13T17:43:27;19.40;99.90
13205;DHT22;6667;52.634;9.226;2022-09-13T17:45:54;19.30;99.90
13205;DHT22;6667;52.634;9.226;2022-09-13T17:48:21;19.30;99.90
13205;DHT22;6667;52.634;9.226;2022-09-13T17:50:50;19.20;99.90
13205;DHT22;6667;52.634;9.226;2022-09-13T17:53:17;19.10;99.90
13205;DHT22;6667;52.634;9.226;2022-09-13T17:55:47;19.00;99.90
13205;DHT22;6667;52.634;9.226;2022-09-13T17:58:15;19.00;99.90
13205;DHT22;6667;52.634;9.226;2022-09-13T18:00:41;18.90;99.90
13205;DHT22;6667;52.634;9.226;2022-09-13T18:03:08;18.90;99.90
13205;DHT22;6667;52.634;9.226;2022-09-13T18:05:35;18.80;99.90
13205;DHT22;6667;52.634;9.226;2022-09-13T18:08:03;18.80;99.90
13205;DHT22;6667;52.634;9.226;2022-09-13T18:10:30;18.70;99.90
13205;DHT22;6667;52.634;9.226;2022-09-13T18:12:58;18.60;99.90
13205;DHT22;6667;52.634;9.226;2022-09-13T18:15:24;18.60;99.90
13205;DHT22;6667;52.634;9.226;2022-09-13T18:17:51;18.50;99.90
13205;DHT22;6667;52.634;9.226;2022-09-13T18:20:18;18.40;99.90
13205;DHT22;6667;52.634;9.226;2022-09-13T18:22:44;18.40;99.90
13205;DHT22;6667;52.634;9.226;2022-09-13T18:25:12;18.40;99.90
13205;DHT22;6667;52.634;9.226;2022-09-13T18:27:39;18.30;99.90
13205;DHT22;6667;52.634;9.226;2022-09-13T18:30:07;18.30;99.90
13205;DHT22;6667;52.634;9.226;2022-09-13T18:32:33;18.20;99.90
13205;DHT22;6667;52.634;9.226;2022-09-13T18:35:00;18.10;99.90
13205;DHT22;6667;52.634;9.226;2022-09-13T18:37:27;18.10;99.90
13205;DHT22;6667;52.634;9.226;2022-09-13T18:39:55;17.90;99.90
13205;DHT22;6667;52.634;9.226;2022-09-13T18:42:23;17.90;99.90
13205;DHT22;6667;52.634;9.226;2022-09-13T18:44:50;17.90;99.90
13205;DHT22;6667;52.634;9.226;2022-09-13T18:47:17;17.80;99.90
13205;DHT22;6667;52.634;9.226;2022-09-13T18:49:44;17.80;99.90
13205;DHT22;6667;52.634;9.226;2022-09-13T18:52:10;17.70;99.90
13205;DHT22;6667;52.634;9.226;2022-09-13T18:54:37;17.70;99.90
13205;DHT22;6667;52.634;9.226;2022-09-13T18:57:04;17.60;99.90
13205;DHT22;6667;52.634;9.226;2022-09-13T18:59:32;17.50;99.90
13205;DHT22;6667;52.634;9.226;2022-09-13T19:01:58;17.50;99.90
13205;DHT22;6667;52.634;9.226;2022-09-13T19:04:25;17.50;99.90
13205;DHT22;6667;52.634;9.226;2022-09-13T19:06:53;17.40;99.90
13205;DHT22;6667;52.634;9.226;2022-09-13T19:09:21;17.40;99.90
13205;DHT22;6667;52.634;9.226;2022-09-13T19:11:49;17.30;99.90
13205;DHT22;6667;52.634;9.226;2022-09-13T19:14:17;17.30;99.90
13205;DHT22;6667;52.634;9.226;2022-09-13T19:16:46;17.20;99.90
13205;DHT22;6667;52.634;9.226;2022-09-13T19:19:13;17.20;99.90
13205;DHT22;6667;52.634;9.226;2022-09-13T19:21:40;17.10;99.90
13205;DHT22;6667;52.634;9.226;2022-09-13T19:24:07;17.10;99.90
13205;DHT22;6667;52.634;9.226;2022-09-13T19:26:37;17.00;99.90
13205;DHT22;6667;52.634;9.226;2022-09-13T19:29:05;17.00;99.90
13205;DHT22;6667;52.634;9.226;2022-09-13T19:31:34;17.00;99.90
13205;DHT22;6667;52.634;9.226;2022-09-13T19:34:02;16.90;99.90
13205;DHT22;6667;52.634;9.226;2022-09-13T19:36:31;16.90;99.90
13205;DHT22;6667;52.634;9.226;2022-09-13T19:38:58;16.90;99.90
13205;DHT22;6667;52.634;9.226;2022-09-13T19:41:26;16.80;99.90
13205;DHT22;6667;52.634;9.226;2022-09-13T19:43:55;16.70;99.90
13205;DHT22;6667;52.634;9.226;2022-09-13T19:46:25;16.50;99.90
13205;DHT22;6667;52.634;9.226;2022-09-13T19:48:54;16.50;99.90
13205;DHT22;6667;52.634;9.226;2022-09-13T19:51:23;16.50;99.90
13205;DHT22;6667;52.634;9.226;2022-09-13T19:53:52;16.40;99.90
13205;DHT22;6667;52.634;9.226;2022-09-13T19:56:21;16.40;99.90
13205;DHT22;6667;52.634;9.226;2022-09-13T19:58:49;16.30;99.90
13205;DHT22;6667;52.634;9.226;2022-09-13T20:01:17;16.30;99.90
13205;DHT22;6667;52.634;9.226;2022-09-13T20:03:49;16.20;99.90
13205;DHT22;6667;52.634;9.226;2022-09-13T20:06:16;16.10;99.90
13205;DHT22;6667;52.634;9.226;2022-09-13T20:08:45;16.10;99.90
13205;DHT22;6667;52.634;9.226;2022-09-13T20:11:13;16.00;99.90
13205;DHT22;6667;52.634;9.226;2022-09-13T20:13:41;16.00;99.90
13205;DHT22;6667;52.634;9.226;2022-09-13T20:16:09;15.90;99.90
13205;DHT22;6667;52.634;9.226;2022-09-13T20:18:36;15.90;99.90
13205;DHT22;6667;52.634;9.226;2022-09-13T20:21:04;15.80;99.90
13205;DHT22;6667;52.634;9.226;2022-09-13T20:23:31;15.80;99.90
13205;DHT22;6667;52.634;9.226;2022-09-13T20:26:00;15.60;99.90
13205;DHT22;6667;52.634;9.226;2022-09-13T20:28:28;15.60;99.90
13205;DHT22;6667;52.634;9.226;2022-09-13T20:30:55;15.50;99.90
13205;DHT22;6667;52.634;9.226;2022-09-13T20:33:24;15.50;99.90
13205;DHT22;6667;52.634;9.226;2022-09-13T20:35:51;15.30;99.90
13205;DHT22;6667;52.634;9.226;2022-09-13T20:38:18;15.40;99.90
13205;DHT22;6667;52.634;9.226;2022-09-13T20:40:45;15.30;99.90
13205;DHT22;6667;52.634;9.226;2022-09-13T20:43:13;15.30;99.90
13205;DHT22;6667;52.634;9.226;2022-09-13T20:45:40;15.30;99.90
13205;DHT22;6667;52.634;9.226;2022-09-13T20:48:07;15.20;99.90
13205;DHT22;6667;52.634;9.226;2022-09-13T20:50:35;15.20;99.90
13205;DHT22;6667;52.634;9.226;2022-09-13T20:53:02;15.10;99.90
13205;DHT22;6667;52.634;9.226;2022-09-13T20:55:29;15.10;99.90
13205;DHT22;6667;52.634;9.226;2022-09-13T20:57:55;15.00;99.90
13205;DHT22;6667;52.634;9.226;2022-09-13T21:00:23;14.90;99.90
13205;DHT22;6667;52.634;9.226;2022-09-13T21:02:50;14.80;99.90
13205;DHT22;6667;52.634;9.226;2022-09-13T21:05:17;14.70;99.90